Terminal Aerodrome Forecast
Issued by NWS

Home | Current Version | Previous Version | Text Only | Print | Product List | Glossary On
Versions: 1 2 3 4 5 6 7 8 9 10 11 12
000
FTUS42 KMLB 290535
TAFTIX
TAF
KTIX 290535Z 2906/3006 19005KT P6SM FEW030 SCT100 BKN250
     FM291400 23007KT P6SM SCT030 SCT250
     FM291900 23008KT P6SM VCTS SCT040CB BKN250
     FM300100 22005KT P6SM SCT080 BKN250
      AMD NOT SKED TIL 291100=

USA.gov is the U.S. government's official web portal to all federal, state and local government web resources and services.